KMPZ

Mount Pleasant Municipal Airport

Mount Pleasant, Iowa, USA
METAR KMPZ 171635Z AUTO 28006KT 10SM SCT009 BKN015 OVC042 23/23 A3000 RMK AO2 P0002
Observed Flight Rules
Aug-17 @ 16:35 UTC (16 minutes ago) Marginal Visual Flight Rules
Wind Visibility Clouds
280° at 6 knots 10 miles
  • Scattered at 900' AGL
  • Broken at 1,500' AGL
  • Overcast at 4,200' AGL
Temperatures Readings Precipitation
Current 23°C / 73°F
Dewpoint 23°C / 73°F
Humidity 100%
Altimeter 30" Hg
Pressure 1016 hPa
Elevation 224
Current Rain 0.02
METAR KMPZ 171635Z AUTO 28006KT 10SM SCT009 BKN015 OVC042 23/23 A3000 RMK AO2 P0002
Observed Flight Rules
Aug-17 @ 16:35 UTC
(16 minutes ago)
MVFR
Wind Visibility
280° at 6 knots 10 miles
Clouds
  • Scattered at 900' AGL
  • Broken at 1,500' AGL
  • Overcast at 4,200' AGL
Temperature Dewpoint
23°C / 73°F 23°C / 73°F
Humidity Altimeter Pressure
100% 30" Hg 1016 hPa
Current Rain
0.02